Latest Weather Observations for Mount Isa

IDQ60801

Issued at 9:35 pm EST Friday 1 August 2014 (issued every 30 minutes, with the page automatically refreshed every 10 minutes)

About weather observations | Map of weather stations | Latest weather observations for QLD | Other Formats
Station Details ID: 029127 Name: MOUNT ISA AERO Lat: -20.68 Lon: 139.49 Height: 340.3 m
Data from the previous 72 hours. | See also: Recent months at Mount Isa
Date/Time
EST
Temp
°C
App
Temp
°C
Dew
Point
Rel
Hum
%
Delta-T
°C
Wind Press
QNH
hPa
Press
MSL
hPa
Rain
since 9 am
mm
Dir
 
Spd
km/h
Gust
km/h
Spd
kts
Gust
kts
01/09:30pm 19.7 12.7 -0.3 26 8.9 S 26 35 14 19 1021.1 - 0.0
01/09:00pm 20.3 12.2 -0.3 25 9.2 S 32 39 17 21 1020.9 1020.0 0.0
01/08:30pm 21.1 12.7 -1.0 22 9.8 S 33 44 18 24 1020.5 - 0.0
01/08:00pm 22.1 13.5 -2.9 18 10.8 S 33 44 18 24 1019.9 - 0.0
01/07:30pm 22.7 15.1 -5.8 14 11.7 S 26 32 14 17 1019.3 - 0.0
01/07:00pm 23.5 16.1 -7.4 12 12.4 S 24 32 13 17 1018.8 - 0.0
01/06:30pm 24.3 16.0 -8.5 10 13.0 S 28 33 15 18 1018.4 - 0.0
01/06:00pm 25.2 17.6 -9.4 9 13.6 SSE 24 35 13 19 1018.1 1017.2 0.0
01/05:30pm 26.3 17.6 -9.4 9 14.2 S 30 35 16 19 1017.7 - 0.0
01/05:00pm 27.2 18.9 -8.8 9 14.6 S 28 35 15 19 1017.5 - 0.0
01/04:30pm 27.5 19.1 -9.8 8 14.9 SSE 28 39 15 21 1017.2 - 0.0
01/04:00pm 27.8 20.2 -10.1 7 15.1 S 24 35 13 19 1017.1 - 0.0
01/03:30pm 27.9 20.3 -9.7 8 15.1 S 24 33 13 18 1017.1 - 0.0
01/03:00pm 28.2 20.2 -9.9 7 15.3 S 26 33 14 18 1017.4 1016.5 0.0
01/02:30pm 28.1 21.6 -8.2 9 15.0 S 19 30 10 16 1017.6 - 0.0
01/02:00pm 28.3 21.5 -8.8 8 15.2 SSW 20 28 11 15 1018.0 - 0.0
01/01:30pm 27.9 20.7 -9.0 8 15.0 S 22 30 12 16 1018.4 - 0.0
01/01:00pm 27.2 20.5 -7.5 9 14.4 S 20 32 11 17 1018.8 - 0.0
01/12:30pm 27.1 18.9 -7.9 9 14.4 S 28 35 15 19 1019.1 - 0.0
01/12:00pm 27.6 20.6 -7.4 9 14.6 S 22 33 12 18 1019.4 1018.6 0.0
01/11:30am 27.0 19.1 -8.3 9 14.4 SSE 26 37 14 20 1019.6 - 0.0
01/11:00am 26.0 18.1 -8.6 9 13.9 SSE 26 35 14 19 1019.8 - 0.0
01/10:30am 25.5 19.3 -9.0 9 13.7 S 17 24 9 13 1020.0 - 0.0
01/10:00am 23.8 18.8 -7.7 11 12.6 SSE 11 15 6 8 1020.1 - 0.0
01/09:30am 21.9 16.9 -8.3 12 11.7 S 11 13 6 7 1020.0 - 0.0
01/09:00am 20.2 15.3 -6.8 15 10.6 S 11 13 6 7 1019.8 1019.0 0.0
01/08:30am 18.3 14.3 -5.5 19 9.4 S 7 11 4 6 1019.4 - 0.0
01/08:28am 17.9 14.0 -4.5 21 9.0 S 7 9 4 5 1019.4 - 0.0
01/08:00am 12.9 10.7 -1.6 36 5.9 CALM 0 0 0 0 1019.1 - 0.0
01/07:30am 7.9 5.5 -3.5 44 4.2 CALM 0 0 0 0 1018.8 - 0.0
01/07:29am 7.9 5.5 -3.5 44 4.2 CALM 0 0 0 0 1018.8 - 0.0
01/07:16am 8.1 5.7 -2.8 46 4.1 CALM 0 0 0 0 1018.6 - 0.0
01/07:00am 8.2 5.7 -3.8 42 4.4 CALM 0 0 0 0 1018.5 - 0.0
01/06:30am 8.1 5.6 -4.0 42 4.4 CALM 0 0 0 0 1018.2 - 0.0
01/06:00am 9.0 6.6 -2.9 43 4.5 SSE 0 0 0 0 1017.9 1017.0 0.0
01/05:30am 10.2 7.0 -0.7 46 4.4 SSE 6 7 3 4 1017.7 - 0.0
01/05:00am 11.3 7.1 -1.0 42 5.0 S 11 11 6 6 1017.5 - 0.0
01/04:30am 11.1 9.2 0.3 47 4.5 CALM 0 0 0 0 1017.2 - 0.0
01/04:00am 11.5 9.5 -0.4 44 4.9 CALM 0 0 0 0 1017.2 - 0.0
01/03:30am 15.4 12.9 -4.1 26 7.7 CALM 0 6 0 3 1017.4 - 0.0
01/03:19am 15.4 11.8 -3.6 27 7.6 S 6 7 3 4 1017.4 - 0.0
01/03:00am 10.4 7.6 -0.7 46 4.5 S 4 7 2 4 1017.5 1016.6 0.0
01/02:30am 10.9 8.9 -0.3 46 4.6 CALM 0 0 0 0 1017.5 - 0.0
01/02:00am 12.3 10.2 -0.5 41 5.3 CALM 0 0 0 0 1017.5 - 0.0
01/01:30am 11.2 8.0 -0.2 45 4.7 SW 6 7 3 4 1017.6 - 0.0
01/01:00am 11.3 8.0 -1.0 42 5.0 SW 6 7 3 4 1017.6 - 0.0
01/12:30am 11.9 9.2 0.5 45 4.8 SW 4 6 2 3 1017.5 - 0.0
01/12:00am 12.7 9.7 1.1 45 5.0 SW 6 7 3 4 1017.5 1016.6 0.0
 
Date/Time
EST
Temp
°C
App
Temp
°C
Dew
Point
Rel
Hum
%
Delta-T
°C
Wind Press
QNH
hPa
Press
MSL
hPa
Rain
since 9 am
mm
Dir
 
Spd
km/h
Gust
km/h
Spd
kts
Gust
kts
31/11:30pm 13.8 10.8 0.6 40 5.7 SSW 6 7 3 4 1017.4 - 0.0
31/11:00pm 15.7 12.7 0.7 36 6.6 S 6 7 3 4 1017.5 - 0.0
31/10:30pm 18.2 14.9 0.2 29 8.0 S 7 9 4 5 1017.4 - 0.0
31/10:00pm 17.8 14.6 3.1 37 6.9 S 9 11 5 6 1017.4 - 0.0
31/09:30pm 18.6 15.4 3.2 36 7.3 S 9 9 5 5 1017.2 - 0.0
31/09:00pm 21.8 17.4 0.2 23 9.9 SSW 13 17 7 9 1017.0 1016.5 0.0
31/08:30pm 21.8 18.5 2.3 27 9.3 S 9 9 5 5 1016.8 - 0.0
31/08:00pm 24.3 19.8 -0.4 19 11.4 SSW 13 17 7 9 1016.6 - 0.0
31/07:30pm 24.5 19.7 0.1 20 11.4 SSW 15 17 8 9 1016.2 - 0.0
31/07:00pm 25.3 20.5 0.3 19 11.8 SSW 15 17 8 9 1015.7 - 0.0
31/06:30pm 26.1 20.9 0.1 18 12.3 SW 17 19 9 10 1015.4 - 0.0
31/06:00pm 27.4 22.4 -1.5 15 13.4 SW 15 20 8 11 1015.2 1014.6 0.0
31/05:30pm 28.5 23.3 -0.1 15 13.7 SW 17 26 9 14 1015.0 - 0.0
31/05:00pm 29.0 24.5 -0.1 15 14.0 SSW 13 20 7 11 1015.1 - 0.0
31/04:30pm 29.9 25.4 2.4 17 13.9 SW 15 24 8 13 1015.1 - 0.0
31/04:00pm 29.1 24.7 0.1 15 14.0 SW 13 26 7 14 1015.2 - 0.0
31/03:30pm 29.7 26.6 1.1 16 14.1 SW 7 17 4 9 1015.4 - 0.0
31/03:00pm 29.5 26.2 2.2 17 13.7 WSW 9 20 5 11 1015.7 1015.1 0.0
31/02:30pm 29.0 25.2 1.9 17 13.5 SSE 11 19 6 10 1016.0 - 0.0
31/02:00pm 28.6 24.2 0.5 16 13.6 WSW 13 26 7 14 1016.4 - 0.0
31/01:30pm 28.3 23.5 2.5 19 12.9 SW 17 26 9 14 1016.8 - 0.0
31/01:00pm 27.8 23.5 0.7 17 13.1 S 13 20 7 11 1017.4 - 0.0
31/12:30pm 27.5 24.0 1.2 18 12.8 S 9 15 5 8 1017.7 - 0.0
31/12:00pm 27.4 24.0 1.7 19 12.6 SSE 9 13 5 7 1018.2 1017.6 0.0
31/11:30am 26.8 22.6 1.9 20 12.2 E 13 19 7 10 1018.6 - 0.0
31/11:00am 26.1 21.8 1.2 19 12.0 E 13 19 7 10 1019.0 - 0.0
31/10:30am 25.6 21.3 1.2 20 11.7 ESE 13 24 7 13 1019.3 - 0.0
31/10:00am 23.9 19.9 -2.2 17 11.6 SSE 9 13 5 7 1019.3 - 0.0
31/09:30am 22.1 18.4 -2.9 18 10.8 SE 7 9 4 5 1019.4 - 0.0
31/09:00am 20.5 16.3 -4.0 19 10.2 SSE 9 11 5 6 1019.4 1018.8 0.0
31/08:30am 18.5 14.8 -3.2 22 9.0 S 7 13 4 7 1019.2 - 0.0
31/08:22am 17.8 15.5 -2.1 25 8.4 CALM 0 7 0 4 1019.2 - 0.0
31/08:00am 12.7 10.7 0.1 42 5.3 CALM 0 0 0 0 1019.1 - 0.0
31/07:30am 9.4 7.1 -2.3 44 4.5 CALM 0 0 0 0 1018.8 - 0.0
31/07:00am 9.0 6.8 -1.8 46 4.2 CALM 0 0 0 0 1018.5 - 0.0
31/06:30am 8.5 6.4 -0.5 53 3.6 CALM 0 0 0 0 1018.1 - 0.0
31/06:00am 9.2 7.1 -0.5 50 3.9 CALM 0 7 0 4 1017.8 1017.2 0.0
31/05:30am 9.7 7.2 -0.8 48 4.2 SSE 2 7 1 4 1017.5 - 0.0
31/05:00am 10.2 6.9 0.3 50 4.1 SSE 7 9 4 5 1017.5 - 0.0
31/04:30am 11.2 8.0 0.5 47 4.5 SSE 7 9 4 5 1017.5 - 0.0
31/04:00am 12.5 9.8 0.2 43 5.2 SSE 4 9 2 5 1017.7 - 0.0
31/03:30am 16.2 13.8 -0.6 32 7.2 ESE 2 7 1 4 1017.8 - 0.0
31/03:00am 18.3 15.6 -2.7 24 8.8 S 2 7 1 4 1017.9 1017.3 0.0
31/02:30am 17.9 14.4 -1.5 26 8.3 SSE 7 9 4 5 1018.0 - 0.0
31/02:13am 17.2 13.3 -1.7 27 8.0 S 9 11 5 6 1018.0 - 0.0
31/02:00am 11.7 9.9 0.9 47 4.6 CALM 0 0 0 0 1018.1 - 0.0
31/01:30am 10.8 8.6 0.8 50 4.2 S 2 7 1 4 1018.1 - 0.0
31/01:00am 12.1 10.2 0.8 46 4.8 CALM 0 0 0 0 1018.1 - 0.0
31/12:30am 12.3 10.4 0.8 45 4.9 CALM 0 0 0 0 1018.1 - 0.0
31/12:00am 12.7 10.0 2.6 50 4.5 S 6 7 3 4 1018.1 1017.5 0.0
 
Date/Time
EST
Temp
°C
App
Temp
°C
Dew
Point
Rel
Hum
%
Delta-T
°C
Wind Press
QNH
hPa
Press
MSL
hPa
Rain
since 9 am
mm
Dir
 
Spd
km/h
Gust
km/h
Spd
kts
Gust
kts
30/11:30pm 13.7 10.8 1.4 43 5.4 S 6 7 3 4 1018.2 - 0.0
30/11:00pm 14.2 11.2 2.1 44 5.4 S 7 11 4 6 1018.4 - 0.0
30/10:30pm 16.2 13.9 2.7 40 6.2 S 4 7 2 4 1018.6 - 0.0
30/10:00pm 15.3 12.5 3.1 44 5.6 S 7 9 4 5 1018.6 - 0.0
30/09:30pm 15.0 12.1 1.5 40 6.0 S 6 7 3 4 1018.5 - 0.0
30/09:00pm 16.1 13.9 3.2 42 6.0 NW 4 6 2 3 1018.4 1017.8 0.0
30/08:30pm 16.7 15.3 3.8 42 6.1 CALM 0 0 0 0 1018.1 - 0.0
30/08:00pm 17.7 16.2 3.0 37 6.9 CALM 0 0 0 0 1017.8 - 0.0
30/07:30pm 18.6 17.4 4.4 39 6.9 CALM 0 0 0 0 1017.6 - 0.0
30/07:00pm 20.9 18.2 3.6 32 8.4 ESE 7 9 4 5 1017.2 - 0.0
30/06:30pm 24.9 22.3 5.9 29 9.9 E 9 11 5 6 1016.9 - 0.0
30/06:00pm 27.0 23.3 2.4 20 12.2 SSE 11 15 6 8 1016.7 1016.1 0.0
30/05:30pm 27.9 24.0 0.9 17 13.1 SSE 11 13 6 7 1016.7 - 0.0
30/05:00pm 28.6 24.5 2.1 18 13.2 SE 13 19 7 10 1016.6 - 0.0
30/04:30pm 28.3 25.4 2.6 19 12.9 E 7 13 4 7 1016.6 - 0.0
30/04:00pm 28.6 25.1 1.3 17 13.4 SSE 9 15 5 8 1016.8 - 0.0
30/03:30pm 28.1 24.0 2.1 18 12.9 SE 13 28 7 15 1016.9 - 0.0
30/03:00pm 28.2 23.7 2.0 18 13.0 SE 15 26 8 14 1017.1 1016.6 0.0
30/02:30pm 28.2 23.5 0.8 17 13.3 SE 15 20 8 11 1017.5 - 0.0
30/02:00pm 28.1 23.1 1.3 17 13.1 SE 17 22 9 12 1017.8 - 0.0
30/01:30pm 28.5 22.6 1.5 17 13.3 E 22 33 12 18 1018.4 - 0.0
30/01:00pm 27.9 22.3 1.3 18 13.0 E 20 30 11 16 1018.8 - 0.0
30/12:30pm 27.0 20.8 1.9 19 12.3 E 24 35 13 19 1019.3 - 0.0
30/12:00pm 26.3 20.7 1.2 19 12.1 SE 20 28 11 15 1019.9 1019.4 0.0
30/11:30am 26.1 20.2 1.9 20 11.8 E 22 30 12 16 1020.3 - 0.0
30/11:00am 25.6 19.9 -0.4 18 12.1 ESE 19 28 10 15 1020.8 - 0.0
30/10:30am 24.3 18.4 -2.6 16 11.9 SE 19 28 10 15 1021.2 - 0.0
30/10:00am 23.2 17.1 -4.0 16 11.6 SE 19 28 10 15 1021.3 - 0.0
30/09:30am 22.6 15.9 -4.1 16 11.3 SE 22 32 12 17 1021.2 - 0.0
30/09:00am 22.1 15.9 -4.4 16 11.1 SE 19 28 10 15 1021.0 1020.4 0.0
30/08:30am 21.0 15.9 -5.2 17 10.7 SSE 13 24 7 13 1020.8 - 0.0
30/08:00am 19.6 12.8 -5.3 18 10.0 SSE 22 30 12 16 1020.6 - 0.0
30/07:30am 18.6 12.1 -6.3 18 9.7 SSE 20 28 11 15 1020.5 - 0.0
30/07:00am 18.4 11.9 -5.8 19 9.5 SSE 20 30 11 16 1020.3 - 0.0
30/06:30am 18.1 11.8 -5.5 19 9.3 SSE 19 28 10 15 1020.3 - 0.0
30/06:00am 17.1 12.8 -5.0 21 8.7 S 9 15 5 8 1020.1 1019.6 0.0
30/05:30am 17.1 12.6 -3.6 24 8.4 S 11 13 6 7 1020.0 - 0.0
30/05:00am 17.4 12.9 -3.4 24 8.5 S 11 15 6 8 1019.9 - 0.0
30/04:30am 19.0 14.4 -4.3 20 9.5 S 11 15 6 8 1019.7 - 0.0
30/04:00am 19.2 13.9 -3.8 21 9.5 SSE 15 19 8 10 1019.5 - 0.0
30/03:30am 19.5 14.6 -3.6 20 9.6 SSE 13 17 7 9 1019.4 - 0.0
30/03:00am 19.6 15.1 -3.4 21 9.6 S 11 15 6 8 1019.4 1018.8 0.0
30/02:30am 19.6 15.1 -2.9 21 9.5 SSE 11 13 6 7 1019.5 - 0.0
30/02:00am 18.8 13.8 -0.9 26 8.6 S 15 17 8 9 1019.7 - 0.0
30/01:30am 19.3 16.1 -0.7 26 8.8 S 6 7 3 4 1019.6 - 0.0
30/01:00am 19.4 16.2 0.6 28 8.5 SSE 7 9 4 5 1019.7 - 0.0
30/12:30am 19.6 16.1 1.0 29 8.5 S 9 11 5 6 1019.8 - 0.0
30/12:11am 18.8 15.7 1.6 31 7.9 S 7 9 4 5 1019.7 - 0.0
30/12:00am 13.8 10.8 1.8 44 5.3 S 7 9 4 5 1019.8 1019.3 0.0
 
Date/Time
EST
Temp
°C
App
Temp
°C
Dew
Point
Rel
Hum
%
Delta-T
°C
Wind Press
QNH
hPa
Press
MSL
hPa
Rain
since 9 am
mm
Dir
 
Spd
km/h
Gust
km/h
Spd
kts
Gust
kts
29/11:30pm 14.3 11.4 1.3 41 5.7 NNW 6 6 3 3 1019.8 - 0.0
29/11:00pm 14.1 11.1 2.3 45 5.3 WNW 7 9 4 5 1019.8 - 0.0
29/10:30pm 14.7 12.0 2.8 44 5.4 W 6 9 3 5 1019.8 - 0.0
29/10:00pm 15.7 13.3 2.2 40 6.1 SW 4 9 2 5 1019.7 - 0.0

Other Formats:

Comma delimited format used in spreadsheet applications
http://www.bom.gov.au/fwo/IDQ60801/IDQ60801.94332.axf

JavaScript Object Notation format (JSON) in row-major order
http://www.bom.gov.au/fwo/IDQ60801/IDQ60801.94332.json